Time;durP1;ratioP1;P1;durP2;ratioP2;P2;SDS_P1;SDS_P2;PMS_P1;PMS_P2;Temp;Humidity;BMP_temperature;BMP_pressure;BME280_temperature;BME280_humidity;BME280_pressure;Samples;Min_cycle;Max_cycle;Signal;HPM_P1;HPM_P2
2022/01/27 00:00:43;;;;;;;;;;;9.20;99.90;;;;;;4899398;29;19934;-87
2022/01/27 00:03:24;;;;;;;;;;;9.10;99.90;;;;;;4900537;29;19934;-87
2022/01/27 00:06:31;;;;;;;;;;;;;;;;;;;;;
2022/01/27 00:12:52;;;;;;;;;;;;;;;;;;;;;
2022/01/27 00:15:31;;;;;;;;;;;9.80;99.90;;;;;;4900204;29;19935;-88
2022/01/27 00:18:08;;;;;;;;;;;9.40;99.90;;;;;;4899865;29;19962;-88
2022/01/27 00:20:35;;;;;;;;;;;7.90;99.90;;;;;;4900031;29;19928;-88
2022/01/27 00:23:12;;;;;;;;;;;9.80;99.90;;;;;;4900352;29;19927;-88
2022/01/27 00:25:45;;;;;;;;;;;10.30;99.90;;;;;;4900088;29;20336;-88
2022/01/27 00:28:29;;;;;;;;;;;;;;;;;;;;;
2022/01/27 00:31:26;;;;;;;;;;;9.30;99.90;;;;;;4894995;29;19934;-88
2022/01/27 00:39:48;;;;;;;;;;;9.70;99.90;;;;;;4889469;29;19935;-88
2022/01/27 10:10:14;;;;;;;;;;;10.50;99.90;;;;;;6220778;22;20017;-87
2022/01/27 10:22:34;;;;;;;;;;;10.10;99.90;;;;;;6178181;22;19923;-88
2022/01/27 10:25:20;;;;;;;;;;;10.70;99.90;;;;;;6241568;22;19919;-86
2022/01/27 10:37:34;;;;;;;;;;;12.30;99.90;;;;;;6225867;22;19964;-87
2022/01/27 11:01:57;;;;;;;;;;;10.70;99.90;;;;;;6055423;22;20675;-86
2022/01/27 11:04:50;;;;;;;;;;;10.40;99.90;;;;;;6202635;22;19923;-85
2022/01/27 11:07:50;;;;;;;;;;;10.60;99.90;;;;;;6219691;22;19919;-85
2022/01/27 11:10:20;;;;;;;;;;;11.00;99.90;;;;;;6091433;23;19923;-85
2022/01/27 11:13:37;;;;;;;;;;;;;;;;;;;;;
2022/01/27 11:16:11;;;;;;;;;;;11.00;99.90;;;;;;6223826;22;20010;-86
2022/01/27 11:28:15;;;;;;;;;;;10.60;99.90;;;;;;6190656;22;20669;-87
2022/01/27 11:31:07;;;;;;;;;;;10.20;99.90;;;;;;6186419;22;19920;-87
2022/01/27 11:33:40;;;;;;;;;;;10.90;99.90;;;;;;6181638;22;19923;-86
2022/01/27 11:36:24;;;;;;;;;;;10.70;99.90;;;;;;6191577;22;19919;-86
2022/01/27 11:38:54;;;;;;;;;;;11.20;99.90;;;;;;6279455;22;19939;-86
2022/01/27 11:44:28;;;;;;;;;;;11.10;99.90;;;;;;6310116;22;19923;-87
2022/01/27 11:47:18;;;;;;;;;;;11.70;99.90;;;;;;6219511;22;19919;-87
2022/01/27 11:52:42;;;;;;;;;;;10.80;99.90;;;;;;6198346;22;19931;-86
2022/01/27 11:55:46;;;;;;;;;;;10.90;99.90;;;;;;6198729;22;19927;-87
2022/01/27 11:58:15;;;;;;;;;;;10.70;99.90;;;;;;6079871;22;19923;-87
2022/01/27 12:01:02;;;;;;;;;;;10.90;99.90;;;;;;6207456;22;19927;-87
2022/01/27 12:03:29;;;;;;;;;;;10.90;99.90;;;;;;6201921;22;20867;-86
2022/01/27 12:06:14;;;;;;;;;;;11.30;99.90;;;;;;6204931;22;19946;-86
2022/01/27 12:08:49;;;;;;;;;;;10.80;99.90;;;;;;6192566;22;21113;-88
2022/01/27 12:11:35;;;;;;;;;;;11.20;99.90;;;;;;6196211;22;19998;-85
2022/01/27 12:14:04;;;;;;;;;;;11.30;99.90;;;;;;6216313;22;19984;-86
2022/01/27 12:19:17;;;;;;;;;;;12.10;99.90;;;;;;6200819;22;19937;-85
2022/01/27 12:21:46;;;;;;;;;;;10.70;99.90;;;;;;6201778;22;19930;-86
2022/01/27 12:24:22;;;;;;;;;;;10.50;99.90;;;;;;6205676;22;20791;-86
2022/01/27 12:26:49;;;;;;;;;;;10.60;99.90;;;;;;6218529;22;19941;-85
2022/01/27 12:29:35;;;;;;;;;;;10.70;99.90;;;;;;6209608;22;20329;-85
2022/01/27 12:32:05;;;;;;;;;;;11.00;99.90;;;;;;6152897;22;19925;-84
2022/01/27 12:34:36;;;;;;;;;;;10.90;99.90;;;;;;6223877;22;19937;-85
2022/01/27 12:37:07;;;;;;;;;;;10.60;99.90;;;;;;6233247;22;19930;-85
2022/01/27 12:39:35;;;;;;;;;;;10.70;99.90;;;;;;6237107;22;20313;-87
2022/01/27 12:42:04;;;;;;;;;;;10.60;99.90;;;;;;6222916;22;19992;-86
2022/01/27 12:44:41;;;;;;;;;;;10.60;99.90;;;;;;6218925;22;19936;-88
2022/01/27 12:47:23;;;;;;;;;;;10.60;99.90;;;;;;6218643;22;19919;-87
2022/01/27 12:50:02;;;;;;;;;;;10.60;99.90;;;;;;6217285;22;19915;-88
2022/01/27 12:52:32;;;;;;;;;;;11.10;99.90;;;;;;6263628;22;19923;-88
2022/01/27 12:54:59;;;;;;;;;;;9.60;99.90;;;;;;6284781;22;19943;-88
2022/01/27 12:57:28;;;;;;;;;;;11.00;99.90;;;;;;6307908;22;19929;-87
2022/01/27 12:59:55;;;;;;;;;;;11.00;99.90;;;;;;6307781;22;20391;-87
2022/01/27 13:02:23;;;;;;;;;;;10.80;99.90;;;;;;6306970;22;19925;-88
2022/01/27 13:04:50;;;;;;;;;;;10.90;99.90;;;;;;6307496;22;19919;-87
2022/01/27 13:07:19;;;;;;;;;;;10.80;99.90;;;;;;6305759;22;20014;-86
2022/01/27 13:09:53;;;;;;;;;;;10.80;99.90;;;;;;6241051;22;19926;-88
2022/01/27 13:12:25;;;;;;;;;;;11.20;99.90;;;;;;6207871;22;20080;-87
2022/01/27 13:17:41;;;;;;;;;;;10.90;99.90;;;;;;6222165;22;19914;-86
2022/01/27 13:20:09;;;;;;;;;;;11.40;99.90;;;;;;6223186;22;19926;-87
2022/01/27 13:22:45;;;;;;;;;;;10.50;99.90;;;;;;6223419;22;20116;-87
2022/01/27 13:25:12;;;;;;;;;;;11.00;99.90;;;;;;6235051;22;19923;-87
2022/01/27 13:27:42;;;;;;;;;;;10.90;99.90;;;;;;6237322;22;20261;-88
2022/01/27 13:30:09;;;;;;;;;;;10.90;99.90;;;;;;6254597;22;20000;-87
2022/01/27 13:32:36;;;;;;;;;;;10.40;99.90;;;;;;6279346;22;20000;-87
2022/01/27 13:35:05;;;;;;;;;;;10.40;99.90;;;;;;6304588;22;19972;-86
2022/01/27 13:37:33;;;;;;;;;;;10.50;99.90;;;;;;6303726;22;20318;-86
2022/01/27 13:42:57;;;;;;;;;;;10.70;99.90;;;;;;6306149;22;19926;-86
2022/01/27 13:45:24;;;;;;;;;;;11.60;99.90;;;;;;6303484;22;20304;-87
2022/01/27 13:50:41;;;;;;;;;;;10.50;99.90;;;;;;6304236;22;19957;-86
2022/01/27 13:53:12;;;;;;;;;;;10.40;99.90;;;;;;6293394;22;20299;-87
2022/01/27 13:55:40;;;;;;;;;;;11.00;99.90;;;;;;6303242;22;19919;-85
2022/01/27 13:58:07;;;;;;;;;;;10.50;99.90;;;;;;6289920;22;19927;-86
2022/01/27 14:00:41;;;;;;;;;;;10.40;99.90;;;;;;6301109;22;19933;-87
2022/01/27 14:03:09;;;;;;;;;;;10.50;99.90;;;;;;6289817;22;19954;-86
2022/01/27 14:05:36;;;;;;;;;;;10.60;99.90;;;;;;6303001;22;20660;-86
2022/01/27 14:08:03;;;;;;;;;;;10.50;99.90;;;;;;6279009;22;19919;-86
2022/01/27 14:10:39;;;;;;;;;;;10.70;99.90;;;;;;6266416;22;20642;-86
2022/01/27 14:13:10;;;;;;;;;;;12.30;99.90;;;;;;6253947;22;20291;-88
2022/01/27 14:15:40;;;;;;;;;;;11.10;99.90;;;;;;6247354;22;20500;-89
2022/01/27 14:18:08;;;;;;;;;;;11.30;99.90;;;;;;6246049;22;19942;-86
2022/01/27 14:20:35;;;;;;;;;;;10.50;99.90;;;;;;6294014;22;19918;-85
2022/01/27 14:23:17;;;;;;;;;;;10.50;99.90;;;;;;6304779;22;19923;-87
2022/01/27 14:25:52;;;;;;;;;;;10.60;99.90;;;;;;6306034;22;19984;-87
2022/01/27 14:28:21;;;;;;;;;;;10.80;99.90;;;;;;6306490;22;19930;-87
2022/01/27 14:30:48;;;;;;;;;;;11.10;99.90;;;;;;6302815;22;19984;-86
2022/01/27 14:33:15;;;;;;;;;;;10.70;99.90;;;;;;6306536;22;19923;-88
2022/01/27 14:35:46;;;;;;;;;;;10.70;99.90;;;;;;6303236;22;20295;-92
2022/01/27 14:38:15;;;;;;;;;;;10.80;99.90;;;;;;6308901;22;19923;-89
2022/01/27 14:40:46;;;;;;;;;;;10.60;99.90;;;;;;6310067;22;19922;-87
2022/01/27 14:43:13;;;;;;;;;;;10.50;99.90;;;;;;6305483;22;19965;-87
2022/01/27 14:48:40;;;;;;;;;;;10.50;99.90;;;;;;6247659;22;19914;-87
2022/01/27 14:51:09;;;;;;;;;;;10.50;99.90;;;;;;6234187;22;20006;-87
2022/01/27 14:53:37;;;;;;;;;;;10.60;99.90;;;;;;6239623;22;19976;-85
2022/01/27 14:56:04;;;;;;;;;;;10.30;99.90;;;;;;6238167;22;19922;-87
2022/01/27 14:58:31;;;;;;;;;;;10.50;99.90;;;;;;6239806;22;19997;-87
2022/01/27 15:00:58;;;;;;;;;;;10.60;99.90;;;;;;6245697;22;20288;-88
2022/01/27 15:03:25;;;;;;;;;;;9.90;99.90;;;;;;6248572;22;20011;-87
2022/01/27 15:05:54;;;;;;;;;;;10.60;99.90;;;;;;6242546;22;21322;-89
2022/01/27 15:08:22;;;;;;;;;;;10.70;99.90;;;;;;6242615;22;20210;-86
2022/01/27 15:10:49;;;;;;;;;;;10.30;99.90;;;;;;6233947;22;21003;-87
2022/01/27 15:13:17;;;;;;;;;;;10.50;99.90;;;;;;6240082;22;20309;-86
2022/01/27 15:21:13;;;;;;;;;;;11.00;99.90;;;;;;6225094;22;20459;-86
2022/01/27 15:23:41;;;;;;;;;;;10.50;99.90;;;;;;6236612;22;19923;-86
2022/01/27 15:26:08;;;;;;;;;;;10.60;99.90;;;;;;6234773;22;19919;-86
2022/01/27 15:28:35;;;;;;;;;;;10.70;99.90;;;;;;6233935;22;19927;-87
2022/01/27 15:31:03;;;;;;;;;;;10.80;99.90;;;;;;6226328;22;19923;-85
2022/01/27 15:33:30;;;;;;;;;;;10.50;99.90;;;;;;6226874;22;19918;-86
2022/01/27 15:35:58;;;;;;;;;;;10.50;99.90;;;;;;6238958;22;20685;-89
2022/01/27 15:38:30;;;;;;;;;;;10.50;99.90;;;;;;6235875;22;19988;-87
2022/01/27 15:40:57;;;;;;;;;;;10.30;99.90;;;;;;6230036;22;19923;-85
2022/01/27 15:43:25;;;;;;;;;;;10.30;99.90;;;;;;6231213;22;19958;-86
2022/01/27 15:45:52;;;;;;;;;;;10.20;99.90;;;;;;6224045;22;19930;-88
2022/01/27 15:48:19;;;;;;;;;;;10.10;99.90;;;;;;6232100;22;19941;-86
2022/01/27 15:50:47;;;;;;;;;;;10.30;99.90;;;;;;6228480;22;19919;-88
2022/01/27 15:53:14;;;;;;;;;;;10.50;99.90;;;;;;6219529;22;20005;-87
2022/01/27 15:55:42;;;;;;;;;;;10.30;99.90;;;;;;6226448;22;19971;-86
2022/01/27 15:58:09;;;;;;;;;;;10.50;99.90;;;;;;6217855;22;19923;-85
2022/01/27 16:00:36;;;;;;;;;;;10.10;99.90;;;;;;6220247;22;20478;-87
2022/01/27 16:03:04;;;;;;;;;;;10.10;99.90;;;;;;6223063;22;19925;-85
2022/01/27 16:05:31;;;;;;;;;;;10.30;99.90;;;;;;6220286;22;19966;-87
2022/01/27 16:08:00;;;;;;;;;;;10.10;99.90;;;;;;6228174;22;19919;-85
